Time;durP1;ratioP1;P1;durP2;ratioP2;P2;SDS_P1;SDS_P2;PMS_P1;PMS_P2;Temp;Humidity;BMP_temperature;BMP_pressure;BME280_temperature;BME280_humidity;BME280_pressure;Samples;Min_cycle;Max_cycle;Signal;HPM_P1;HPM_P2
2024/01/19 00:01:26;;;;;;;3.53;1.63;;;0.60;99.90;;;;;;5021930;28;20048;-82
2024/01/19 00:03:52;;;;;;;5.20;1.40;;;0.60;99.90;;;;;;5035573;28;20044;-82
2024/01/19 00:06:18;;;;;;;3.60;1.53;;;0.60;99.90;;;;;;5016483;28;20048;-82
2024/01/19 00:08:44;;;;;;;4.10;1.30;;;0.60;99.90;;;;;;5029838;28;20040;-82
2024/01/19 00:11:14;;;;;;;4.20;1.40;;;0.60;99.90;;;;;;5016169;28;20086;-82
2024/01/19 00:13:43;;;;;;;5.73;1.30;;;0.60;99.90;;;;;;5016908;28;20037;-82
2024/01/19 00:16:09;;;;;;;3.47;1.40;;;0.50;99.90;;;;;;5046551;28;20384;-82
2024/01/19 00:18:34;;;;;;;4.13;1.53;;;0.50;99.90;;;;;;5038131;28;20128;-82
2024/01/19 00:21:00;;;;;;;3.37;1.37;;;0.50;99.90;;;;;;5034978;28;20032;-82
2024/01/19 00:23:26;;;;;;;4.60;1.30;;;0.40;99.90;;;;;;5017172;28;20042;-82
2024/01/19 00:25:52;;;;;;;3.83;1.27;;;0.40;99.90;;;;;;5018089;28;20032;-82
2024/01/19 00:28:18;;;;;;;5.93;1.50;;;0.40;99.90;;;;;;5036764;28;20127;-82
2024/01/19 00:30:43;;;;;;;4.17;1.40;;;0.40;99.90;;;;;;5005285;28;20037;-82
2024/01/19 00:33:10;;;;;;;2.40;1.00;;;0.40;99.90;;;;;;5029754;28;20102;-82
2024/01/19 00:35:36;;;;;;;7.17;1.40;;;0.40;99.90;;;;;;5033985;28;20044;-82
2024/01/19 00:38:02;;;;;;;2.00;1.20;;;0.30;99.90;;;;;;5022037;28;20033;-81
2024/01/19 00:40:27;;;;;;;3.40;1.70;;;0.20;99.90;;;;;;5015763;28;20056;-82
2024/01/19 00:42:54;;;;;;;5.10;1.80;;;0.10;99.90;;;;;;5014873;28;20648;-82
2024/01/19 00:45:19;;;;;;;4.33;2.20;;;0.00;99.90;;;;;;5022165;28;20378;-82
2024/01/19 00:47:45;;;;;;;5.40;2.40;;;0.00;99.90;;;;;;5018737;28;20048;-82
2024/01/19 00:50:11;;;;;;;6.73;1.90;;;0.00;99.90;;;;;;5008017;28;20126;-82
2024/01/19 00:52:36;;;;;;;3.63;1.93;;;-0.10;99.90;;;;;;5051906;28;20037;-82
2024/01/19 00:55:02;;;;;;;5.67;2.33;;;0.00;99.90;;;;;;5027267;28;20091;-82
2024/01/19 00:57:28;;;;;;;4.63;1.83;;;0.00;99.90;;;;;;5036415;28;20043;-82
2024/01/19 00:59:55;;;;;;;5.80;2.00;;;0.10;99.90;;;;;;5021899;28;20112;-82
2024/01/19 01:02:21;;;;;;;4.97;1.50;;;0.10;99.90;;;;;;5019762;28;20052;-82
2024/01/19 01:04:47;;;;;;;6.77;1.73;;;0.20;99.90;;;;;;5016347;28;20480;-82
2024/01/19 01:07:12;;;;;;;6.13;2.10;;;0.30;99.90;;;;;;5040132;28;20159;-82
2024/01/19 01:09:38;;;;;;;6.53;1.97;;;0.30;99.90;;;;;;5053756;28;20844;-82
2024/01/19 01:12:04;;;;;;;5.00;2.00;;;0.30;99.90;;;;;;5012605;28;20119;-82
2024/01/19 01:14:30;;;;;;;3.70;1.80;;;0.40;99.90;;;;;;5021323;28;20037;-82
2024/01/19 01:16:56;;;;;;;3.07;1.73;;;0.40;99.90;;;;;;5029310;28;20044;-82
2024/01/19 01:19:22;;;;;;;4.87;2.23;;;0.40;99.90;;;;;;5032940;28;20076;-82
2024/01/19 01:21:47;;;;;;;3.80;1.97;;;0.50;99.90;;;;;;5034734;28;20048;-82
2024/01/19 01:24:13;;;;;;;5.77;2.63;;;0.50;99.90;;;;;;5036350;28;20049;-82
2024/01/19 01:26:39;;;;;;;4.93;2.10;;;0.50;99.90;;;;;;5022690;28;20063;-82
2024/01/19 01:29:04;;;;;;;4.17;1.90;;;0.60;99.90;;;;;;5008772;28;20369;-82
2024/01/19 01:31:30;;;;;;;5.50;2.00;;;0.60;99.90;;;;;;5034827;28;20041;-82
2024/01/19 01:33:56;;;;;;;5.13;2.17;;;0.50;99.90;;;;;;5037216;28;20032;-82
2024/01/19 01:36:21;;;;;;;6.13;2.13;;;0.50;99.90;;;;;;5035032;28;20040;-82
2024/01/19 01:38:47;;;;;;;7.70;2.17;;;0.40;99.90;;;;;;5018028;28;20449;-82
2024/01/19 01:41:13;;;;;;;6.07;2.13;;;0.30;99.90;;;;;;5004218;28;20033;-82
2024/01/19 01:43:38;;;;;;;7.23;2.30;;;0.20;99.90;;;;;;5034697;28;20306;-83
2024/01/19 01:46:04;;;;;;;4.40;2.00;;;0.10;99.90;;;;;;5007000;28;20157;-82
2024/01/19 01:48:30;;;;;;;4.13;2.17;;;0.00;99.90;;;;;;5032882;28;20138;-82
2024/01/19 01:50:57;;;;;;;6.80;2.37;;;0.00;99.90;;;;;;5017948;28;20195;-82
2024/01/19 01:53:23;;;;;;;6.30;2.33;;;-0.10;99.90;;;;;;5050054;28;20045;-82
2024/01/19 01:55:49;;;;;;;6.00;2.63;;;-0.20;99.90;;;;;;5053764;28;20036;-82
2024/01/19 01:58:18;;;;;;;7.70;2.80;;;-0.20;99.90;;;;;;5036991;28;20040;-82
2024/01/19 02:00:45;;;;;;;11.13;2.80;;;-0.30;99.90;;;;;;5034732;28;20094;-82
2024/01/19 02:03:12;;;;;;;8.80;2.90;;;-0.40;99.90;;;;;;5034748;28;20686;-82
2024/01/19 02:05:38;;;;;;;5.93;2.40;;;-0.30;99.90;;;;;;5034214;28;20496;-82
2024/01/19 02:08:04;;;;;;;5.37;2.43;;;-0.30;99.90;;;;;;5019223;28;20120;-82
2024/01/19 02:10:29;;;;;;;7.57;3.00;;;-0.30;99.90;;;;;;5003882;28;20037;-82
2024/01/19 02:12:56;;;;;;;7.00;2.53;;;-0.30;99.90;;;;;;5019735;28;20063;-82
2024/01/19 02:15:24;;;;;;;5.53;2.17;;;-0.20;99.90;;;;;;5019184;28;20044;-82
2024/01/19 02:17:51;;;;;;;4.93;2.13;;;-0.20;99.90;;;;;;5033558;28;20041;-82
2024/01/19 02:20:18;;;;;;;4.63;2.00;;;-0.20;99.90;;;;;;5037386;28;20565;-82
2024/01/19 02:22:44;;;;;;;6.93;2.30;;;-0.10;99.90;;;;;;5039660;28;20041;-82
2024/01/19 02:25:11;;;;;;;5.90;1.97;;;-0.10;99.90;;;;;;5035275;28;20423;-82
2024/01/19 02:27:37;;;;;;;2.20;1.60;;;-0.10;99.90;;;;;;5019978;28;20129;-82
2024/01/19 02:30:07;;;;;;;5.77;1.83;;;-0.20;99.90;;;;;;5033327;28;20548;-82
2024/01/19 02:32:33;;;;;;;6.43;2.30;;;-0.20;99.90;;;;;;5018523;28;20032;-82
2024/01/19 02:34:59;;;;;;;4.50;1.97;;;-0.20;99.90;;;;;;5037798;28;20454;-82
2024/01/19 02:37:24;;;;;;;3.03;1.73;;;-0.20;99.90;;;;;;5033797;28;20037;-82
2024/01/19 02:39:50;;;;;;;6.37;1.80;;;-0.20;99.90;;;;;;5021594;28;20033;-82
2024/01/19 02:42:16;;;;;;;7.50;1.90;;;-0.20;99.90;;;;;;5007373;28;20098;-82
2024/01/19 02:44:42;;;;;;;2.93;1.70;;;-0.20;99.90;;;;;;5049802;28;20463;-82
2024/01/19 02:47:07;;;;;;;4.10;1.40;;;-0.20;99.90;;;;;;5014347;28;20082;-82
2024/01/19 02:49:33;;;;;;;5.80;1.73;;;-0.20;99.90;;;;;;5038197;28;20083;-82
2024/01/19 02:51:59;;;;;;;3.57;1.90;;;-0.10;99.90;;;;;;5021486;28;20040;-82
2024/01/19 02:54:24;;;;;;;4.20;1.90;;;-0.10;99.90;;;;;;5024337;28;20056;-82
2024/01/19 02:56:50;;;;;;;7.50;1.80;;;-0.10;99.90;;;;;;5027282;28;20120;-82
2024/01/19 02:59:16;;;;;;;5.30;1.77;;;-0.10;99.90;;;;;;5049356;28;20037;-82
2024/01/19 03:01:42;;;;;;;4.90;1.90;;;0.00;99.90;;;;;;5034096;28;20048;-82
2024/01/19 03:04:07;;;;;;;6.37;1.97;;;0.00;99.90;;;;;;5031818;28;20041;-82
2024/01/19 03:06:33;;;;;;;5.50;1.93;;;0.10;99.90;;;;;;5054036;28;20738;-82
2024/01/19 03:08:59;;;;;;;4.37;2.10;;;0.10;99.90;;;;;;5015530;28;20045;-82
2024/01/19 03:11:24;;;;;;;6.17;2.10;;;0.20;99.90;;;;;;5038925;28;20036;-82
2024/01/19 03:13:52;;;;;;;6.93;2.10;;;0.30;99.90;;;;;;5044838;28;20040;-81
2024/01/19 03:16:19;;;;;;;4.37;1.97;;;0.40;99.90;;;;;;5033235;28;20079;-82
2024/01/19 03:18:45;;;;;;;5.70;1.73;;;0.40;99.90;;;;;;5043810;28;20044;-82
2024/01/19 03:21:12;;;;;;;5.80;1.90;;;0.40;99.90;;;;;;5053385;28;20043;-82
2024/01/19 03:23:38;;;;;;;4.47;1.70;;;0.50;99.90;;;;;;5065151;28;20037;-82
2024/01/19 03:26:04;;;;;;;4.50;1.50;;;0.50;99.90;;;;;;5017561;28;20148;-82
2024/01/19 03:28:30;;;;;;;6.10;2.17;;;0.50;99.90;;;;;;5020144;28;21025;-82
2024/01/19 03:30:56;;;;;;;2.97;1.93;;;0.50;99.90;;;;;;5002806;28;20036;-82
2024/01/19 03:33:22;;;;;;;5.13;1.70;;;0.50;99.90;;;;;;5033611;28;20124;-82
2024/01/19 03:35:47;;;;;;;4.73;1.50;;;0.50;99.90;;;;;;5034319;28;20043;-82
2024/01/19 03:38:13;;;;;;;5.10;1.63;;;0.50;99.90;;;;;;5046044;28;20076;-82
2024/01/19 03:40:39;;;;;;;5.30;1.57;;;0.50;99.90;;;;;;5000536;28;20091;-82
2024/01/19 03:43:04;;;;;;;4.87;1.67;;;0.50;99.90;;;;;;5050287;28;20033;-82
2024/01/19 03:45:30;;;;;;;5.93;1.70;;;0.50;99.90;;;;;;5024759;28;20076;-82
2024/01/19 03:47:56;;;;;;;5.63;1.70;;;0.50;99.90;;;;;;5048856;28;20041;-82
2024/01/19 03:50:22;;;;;;;4.63;1.67;;;0.50;99.90;;;;;;5032584;28;20052;-82
2024/01/19 03:52:48;;;;;;;3.63;1.50;;;0.50;99.90;;;;;;5049821;28;20496;-82
2024/01/19 03:55:15;;;;;;;7.13;1.90;;;0.60;99.90;;;;;;5033202;28;20033;-82
2024/01/19 03:57:41;;;;;;;5.53;1.70;;;0.60;99.90;;;;;;5033068;28;20103;-82
2024/01/19 04:00:08;;;;;;;6.03;1.70;;;0.60;99.90;;;;;;5033008;28;20041;-81
2024/01/19 04:02:34;;;;;;;5.43;1.40;;;0.60;99.90;;;;;;5003280;28;20396;-82
2024/01/19 04:05:00;;;;;;;6.47;1.70;;;0.50;99.90;;;;;;5016160;28;20046;-82
2024/01/19 04:07:26;;;;;;;2.77;1.40;;;0.50;99.90;;;;;;5034004;28;20396;-82
2024/01/19 04:09:52;;;;;;;6.93;1.93;;;0.50;99.90;;;;;;5038340;28;20045;-82
2024/01/19 04:12:18;;;;;;;4.33;1.63;;;0.40;99.90;;;;;;5042985;28;20087;-82
2024/01/19 04:14:45;;;;;;;5.77;1.40;;;0.40;99.90;;;;;;5017991;28;20618;-82
2024/01/19 04:17:11;;;;;;;4.57;1.27;;;0.30;99.90;;;;;;5034097;28;20037;-82
2024/01/19 04:19:38;;;;;;;4.33;1.20;;;0.30;99.90;;;;;;5048632;28;20037;-82
2024/01/19 04:22:04;;;;;;;3.43;1.23;;;0.20;99.90;;;;;;5035879;28;20048;-82
2024/01/19 04:24:30;;;;;;;4.00;1.30;;;0.30;99.90;;;;;;5021890;28;20480;-82
2024/01/19 04:26:56;;;;;;;4.47;1.60;;;0.30;99.90;;;;;;5052883;28;20101;-82
2024/01/19 04:29:22;;;;;;;3.50;1.10;;;0.30;99.90;;;;;;5019759;28;20424;-82
2024/01/19 04:31:48;;;;;;;4.93;1.50;;;0.30;99.90;;;;;;5020290;28;20033;-82
2024/01/19 04:34:14;;;;;;;4.67;1.20;;;0.30;99.90;;;;;;5041448;28;20068;-82
2024/01/19 04:36:40;;;;;;;2.53;1.20;;;0.30;99.90;;;;;;5019704;28;20118;-82
2024/01/19 04:39:06;;;;;;;3.30;1.20;;;0.30;99.90;;;;;;5036206;28;20044;-82
2024/01/19 04:41:34;;;;;;;6.10;1.30;;;0.20;99.90;;;;;;5038893;28;20055;-82
2024/01/19 04:44:00;;;;;;;2.73;1.10;;;0.10;99.90;;;;;;5064803;28;20040;-82
2024/01/19 04:46:26;;;;;;;3.40;1.40;;;0.10;99.90;;;;;;5053868;28;20037;-82
2024/01/19 04:48:51;;;;;;;5.67;1.40;;;-0.10;99.90;;;;;;5050126;28;20037;-82
2024/01/19 04:51:18;;;;;;;3.00;1.30;;;-0.20;99.90;;;;;;5036003;28;20546;-82
2024/01/19 04:53:44;;;;;;;5.40;1.30;;;-0.30;99.90;;;;;;5036450;28;20053;-82
2024/01/19 04:56:10;;;;;;;3.90;1.30;;;-0.40;99.90;;;;;;5035963;28;20041;-82
2024/01/19 04:58:37;;;;;;;4.87;1.60;;;-0.50;99.90;;;;;;5061891;28;20036;-82
2024/01/19 05:01:03;;;;;;;2.47;1.60;;;-0.50;99.90;;;;;;5051259;28;20052;-82
2024/01/19 05:03:30;;;;;;;2.30;1.20;;;-0.50;99.90;;;;;;5026927;28;20041;-82
2024/01/19 05:05:55;;;;;;;5.53;1.43;;;-0.60;99.90;;;;;;5035680;28;20099;-82
2024/01/19 05:08:21;;;;;;;4.60;1.30;;;-0.60;99.90;;;;;;5040491;28;20462;-82
2024/01/19 05:10:47;;;;;;;5.40;1.70;;;-0.70;99.90;;;;;;5030447;28;20472;-82
2024/01/19 05:13:13;;;;;;;5.00;1.60;;;-0.70;99.90;;;;;;5023945;28;20056;-82
2024/01/19 05:15:39;;;;;;;5.17;1.87;;;-0.70;99.90;;;;;;5023087;28;20131;-82
2024/01/19 05:18:05;;;;;;;3.63;1.70;;;-0.80;99.90;;;;;;5023864;28;20413;-82
2024/01/19 05:20:31;;;;;;;4.50;1.60;;;-0.80;99.90;;;;;;5026564;28;20099;-82
2024/01/19 05:22:57;;;;;;;6.10;1.67;;;-0.80;99.90;;;;;;5039702;28;20388;-82
2024/01/19 05:25:23;;;;;;;7.60;1.70;;;-0.80;99.90;;;;;;5066559;28;20048;-82
2024/01/19 05:27:53;;;;;;;5.20;1.40;;;-0.80;99.90;;;;;;5039463;28;20044;-82
2024/01/19 05:30:28;;;;;;;4.47;1.60;;;-0.90;99.90;;;;;;5045303;28;20056;-82
2024/01/19 05:32:54;;;;;;;5.30;1.60;;;-0.90;99.90;;;;;;5020528;28;20060;-82
2024/01/19 05:35:20;;;;;;;5.03;1.67;;;-1.00;99.90;;;;;;5035154;28;20110;-82
2024/01/19 05:37:47;;;;;;;4.53;1.87;;;-0.90;99.90;;;;;;5018842;28;20037;-82
2024/01/19 05:40:12;;;;;;;3.77;1.80;;;-1.00;99.90;;;;;;5053354;28;20133;-82
2024/01/19 05:42:38;;;;;;;5.57;1.83;;;-0.90;99.90;;;;;;5034583;28;20080;-82
2024/01/19 05:45:04;;;;;;;5.00;1.43;;;-0.90;99.90;;;;;;5018567;28;20037;-81
2024/01/19 05:47:30;;;;;;;4.17;1.50;;;-1.00;99.90;;;;;;5045773;28;20029;-82
2024/01/19 05:49:56;;;;;;;4.83;1.73;;;-0.90;99.90;;;;;;5016896;28;20407;-82
2024/01/19 05:52:22;;;;;;;3.07;1.67;;;-1.00;99.90;;;;;;5016888;28;20048;-82
2024/01/19 05:54:48;;;;;;;6.03;1.60;;;-1.00;99.90;;;;;;5017897;28;20033;-81
2024/01/19 05:57:13;;;;;;;5.80;1.80;;;-1.00;99.90;;;;;;5034217;28;20047;-81
2024/01/19 05:59:40;;;;;;;4.77;1.90;;;-0.90;99.90;;;;;;5034551;28;20044;-82
2024/01/19 06:02:06;;;;;;;5.60;1.90;;;-0.90;99.90;;;;;;5022403;28;20043;-82
2024/01/19 06:04:40;;;;;;;7.57;2.03;;;-0.90;99.90;;;;;;5034235;28;20180;-82
2024/01/19 06:07:06;;;;;;;6.67;1.70;;;-0.80;99.90;;;;;;5034588;28;20041;-82
2024/01/19 06:09:32;;;;;;;4.20;1.80;;;-0.90;99.90;;;;;;5034269;28;20508;-82
2024/01/19 06:11:57;;;;;;;5.70;1.70;;;-0.90;99.90;;;;;;5029837;28;20037;-81
2024/01/19 06:14:23;;;;;;;5.40;1.63;;;-0.90;99.90;;;;;;5051261;28;20124;-82
2024/01/19 06:16:49;;;;;;;4.37;1.60;;;-0.90;99.90;;;;;;5018064;28;20037;-82
2024/01/19 06:19:15;;;;;;;7.33;1.67;;;-1.00;99.90;;;;;;5013170;28;20525;-81
2024/01/19 06:21:48;;;;;;;5.47;2.00;;;-1.00;99.90;;;;;;5032764;28;20120;-82
2024/01/19 06:24:17;;;;;;;6.50;1.87;;;-1.10;99.90;;;;;;5019296;28;20095;-82
2024/01/19 06:26:47;;;;;;;4.33;1.87;;;-1.10;99.90;;;;;;5038392;28;20045;-82
2024/01/19 06:29:13;;;;;;;7.70;1.70;;;-1.10;99.90;;;;;;5028758;28;20047;-82
2024/01/19 06:31:46;;;;;;;5.83;2.20;;;-1.10;99.90;;;;;;5053582;28;20029;-82
2024/01/19 06:34:15;;;;;;;8.20;2.20;;;-1.10;99.90;;;;;;5063424;28;20032;-82
2024/01/19 06:36:47;;;;;;;5.10;1.90;;;-1.10;99.90;;;;;;5048357;28;20052;-82
2024/01/19 06:39:13;;;;;;;6.37;1.73;;;-1.00;99.90;;;;;;5002971;28;20107;-82
2024/01/19 06:41:43;;;;;;;10.20;2.43;;;-1.00;99.90;;;;;;5016864;28;20047;-82
2024/01/19 06:44:12;;;;;;;4.63;1.80;;;-0.90;99.90;;;;;;5039964;28;20385;-82
2024/01/19 06:46:42;;;;;;;9.73;2.13;;;-0.80;99.90;;;;;;5058987;28;20044;-82
2024/01/19 06:49:08;;;;;;;7.17;2.03;;;-0.70;99.90;;;;;;5034574;28;20578;-82
2024/01/19 06:51:34;;;;;;;9.37;2.20;;;-0.50;99.90;;;;;;5017622;28;20045;-80
2024/01/19 06:53:59;;;;;;;10.93;2.73;;;-0.40;99.90;;;;;;5018301;28;20091;-81
2024/01/19 06:56:25;;;;;;;7.67;2.50;;;-0.30;99.90;;;;;;5013984;28;20087;-82
2024/01/19 06:58:51;;;;;;;9.40;2.40;;;-0.20;99.90;;;;;;5025755;28;20041;-82
2024/01/19 07:01:18;;;;;;;6.03;2.10;;;-0.10;99.90;;;;;;5016395;28;20068;-81
2024/01/19 07:03:43;;;;;;;8.03;1.83;;;-0.10;99.90;;;;;;5000923;28;20037;-81
2024/01/19 07:06:09;;;;;;;8.97;2.10;;;-0.10;99.90;;;;;;5033740;28;20412;-81
2024/01/19 07:08:36;;;;;;;7.17;1.80;;;-0.10;99.90;;;;;;5033852;28;20080;-82
2024/01/19 07:11:02;;;;;;;9.30;1.97;;;-0.10;99.90;;;;;;4998104;28;20041;-81
2024/01/19 07:13:28;;;;;;;6.07;1.80;;;-0.20;99.90;;;;;;5019624;28;20479;-81
2024/01/19 07:15:54;;;;;;;6.90;1.73;;;-0.20;99.90;;;;;;5018978;28;20041;-81
2024/01/19 07:18:19;;;;;;;5.57;2.00;;;-0.20;99.90;;;;;;4998949;28;20048;-81
2024/01/19 07:20:45;;;;;;;8.20;2.03;;;-0.20;99.90;;;;;;5018443;28;20041;-82
2024/01/19 07:23:11;;;;;;;5.57;2.07;;;-0.30;99.90;;;;;;5049313;28;20542;-82
2024/01/19 07:25:37;;;;;;;7.37;2.23;;;-0.30;99.90;;;;;;5045945;28;20040;-82
2024/01/19 07:28:03;;;;;;;5.87;1.77;;;-0.40;99.90;;;;;;5045534;28;20041;-82
2024/01/19 07:30:28;;;;;;;5.27;1.93;;;-0.40;99.90;;;;;;5022788;28;20044;-82
2024/01/19 07:32:54;;;;;;;4.93;1.80;;;-0.50;99.90;;;;;;5035012;28;20052;-82
2024/01/19 07:35:20;;;;;;;5.10;2.30;;;-0.60;99.90;;;;;;5032318;28;20086;-82
2024/01/19 07:37:45;;;;;;;7.17;1.80;;;-0.60;99.90;;;;;;5020209;28;20103;-81
2024/01/19 07:40:11;;;;;;;8.73;2.30;;;-0.70;99.90;;;;;;5017132;28;20044;-82
2024/01/19 07:42:37;;;;;;;10.90;2.30;;;-0.70;99.90;;;;;;5018921;28;20043;-82
2024/01/19 07:45:03;;;;;;;5.77;2.30;;;-0.70;99.90;;;;;;5022148;28;20040;-82
2024/01/19 07:47:29;;;;;;;8.23;2.30;;;-0.70;99.90;;;;;;5032690;28;20408;-82
2024/01/19 07:49:55;;;;;;;8.80;2.00;;;-0.80;99.90;;;;;;5017994;28;20064;-82
2024/01/19 07:52:20;;;;;;;9.37;2.37;;;-0.80;99.90;;;;;;5004592;28;20036;-82
2024/01/19 07:54:46;;;;;;;6.03;2.00;;;-0.80;99.90;;;;;;5019105;28;20080;-82
2024/01/19 07:57:12;;;;;;;8.90;2.20;;;-0.70;99.90;;;;;;5069517;28;20043;-82
2024/01/19 07:59:38;;;;;;;8.83;2.07;;;-0.70;99.90;;;;;;5011241;28;20045;-82
2024/01/19 08:02:03;;;;;;;6.90;2.20;;;-0.60;99.90;;;;;;5015768;28;20087;-82
2024/01/19 08:04:29;;;;;;;11.17;2.10;;;-0.60;99.90;;;;;;5054071;28;20041;-81
2024/01/19 08:06:55;;;;;;;7.60;2.23;;;-0.50;99.90;;;;;;5015026;28;20072;-82
2024/01/19 08:09:21;;;;;;;9.17;2.20;;;-0.40;99.90;;;;;;5048950;28;20507;-81
2024/01/19 08:11:47;;;;;;;8.13;2.50;;;-0.40;99.90;;;;;;5016046;28;20032;-82
2024/01/19 08:14:13;;;;;;;8.80;2.53;;;-0.30;99.90;;;;;;4999113;28;20120;-81
2024/01/19 08:16:43;;;;;;;6.50;1.87;;;-0.20;99.90;;;;;;5020191;28;20115;-81
2024/01/19 08:19:08;;;;;;;7.53;2.20;;;-0.10;99.90;;;;;;5068428;28;20421;-82
2024/01/19 08:21:42;;;;;;;6.40;2.20;;;-0.10;99.90;;;;;;5017322;28;20040;-81
2024/01/19 08:24:07;;;;;;;7.40;2.10;;;0.00;99.90;;;;;;5047957;28;20049;-81
2024/01/19 08:26:33;;;;;;;9.60;2.60;;;0.00;99.90;;;;;;5017857;28;20094;-82
2024/01/19 08:29:00;;;;;;;5.27;2.40;;;0.00;99.90;;;;;;4994293;28;20052;-82
2024/01/19 08:31:30;;;;;;;4.83;1.90;;;0.00;99.90;;;;;;5015927;28;20048;-82
2024/01/19 08:33:56;;;;;;;4.23;1.80;;;0.00;99.90;;;;;;5032574;28;20408;-82
2024/01/19 08:36:25;;;;;;;6.33;1.90;;;0.10;99.90;;;;;;5033301;28;20382;-81
2024/01/19 08:38:51;;;;;;;6.87;2.10;;;0.10;99.90;;;;;;5011731;28;20501;-81
2024/01/19 08:41:17;;;;;;;4.87;1.83;;;0.10;99.90;;;;;;5011982;28;20037;-82
2024/01/19 08:43:43;;;;;;;6.67;2.07;;;0.00;99.90;;;;;;5035840;28;20051;-82
2024/01/19 08:46:09;;;;;;;6.03;2.33;;;0.00;99.90;;;;;;5028485;28;20044;-81
2024/01/19 08:48:34;;;;;;;5.27;1.80;;;-0.10;99.90;;;;;;5016541;28;20041;-82
2024/01/19 08:51:01;;;;;;;7.30;2.00;;;0.00;99.90;;;;;;5045176;28;20119;-82
2024/01/19 08:53:27;;;;;;;6.80;1.77;;;0.00;99.90;;;;;;5034580;28;20041;-82
2024/01/19 08:55:53;;;;;;;5.37;2.10;;;0.10;99.90;;;;;;4995879;28;20076;-82
2024/01/19 08:58:20;;;;;;;7.47;2.33;;;0.20;99.90;;;;;;5012227;28;20053;-82
2024/01/19 09:00:45;;;;;;;6.70;2.10;;;0.30;99.90;;;;;;5016449;28;20049;-82
2024/01/19 09:03:11;;;;;;;10.23;2.67;;;0.40;99.90;;;;;;5028458;28;20229;-82
2024/01/19 09:05:37;;;;;;;6.67;2.37;;;0.40;99.90;;;;;;5043410;28;20063;-82
2024/01/19 09:08:03;;;;;;;5.80;2.10;;;0.50;99.90;;;;;;5000344;28;20386;-82
2024/01/19 09:10:29;;;;;;;4.60;2.30;;;0.60;99.90;;;;;;5038589;28;20050;-82
2024/01/19 09:12:58;;;;;;;6.13;2.07;;;0.60;99.90;;;;;;5042399;28;20415;-83
2024/01/19 09:15:24;;;;;;;6.23;2.37;;;0.70;99.90;;;;;;5047401;28;20039;-82
2024/01/19 09:17:49;;;;;;;5.80;2.30;;;0.80;99.90;;;;;;5000303;28;20045;-82
2024/01/19 09:20:15;;;;;;;9.53;2.50;;;0.80;99.90;;;;;;5031938;28;20041;-82
2024/01/19 09:22:42;;;;;;;7.83;2.60;;;0.90;99.90;;;;;;5018445;28;20041;-82
2024/01/19 09:25:08;;;;;;;6.47;2.30;;;1.00;99.90;;;;;;5054008;28;20047;-82
2024/01/19 09:27:34;;;;;;;7.63;2.10;;;1.10;99.90;;;;;;5035253;28;20054;-82
2024/01/19 09:30:00;;;;;;;7.03;2.10;;;1.10;99.90;;;;;;5037118;28;20045;-82
2024/01/19 09:32:26;;;;;;;9.67;2.30;;;1.10;99.90;;;;;;5044641;28;20125;-83
2024/01/19 09:34:53;;;;;;;5.70;2.00;;;1.20;99.90;;;;;;5036657;28;20072;-81
2024/01/19 09:37:19;;;;;;;5.37;2.37;;;1.20;99.90;;;;;;5027381;28;20040;-82
2024/01/19 09:39:44;;;;;;;6.50;2.13;;;1.30;99.90;;;;;;5054314;28;20449;-82
2024/01/19 09:42:23;;;;;;;7.30;2.83;;;1.40;99.90;;;;;;5061774;28;20507;-82
2024/01/19 09:45:04;;;;;;;7.63;2.13;;;1.40;99.90;;;;;;5033751;28;20072;-82
2024/01/19 09:47:56;;;;;;;7.87;2.10;;;1.50;99.90;;;;;;5033188;28;20462;-82
2024/01/19 09:50:28;;;;;;;9.63;2.30;;;1.50;99.90;;;;;;5036529;28;20052;-82
2024/01/19 09:53:01;;;;;;;7.13;2.30;;;1.60;99.90;;;;;;5038390;28;20041;-82
2024/01/19 09:55:27;;;;;;;5.43;2.10;;;1.60;99.90;;;;;;5043683;28;20051;-81
2024/01/19 09:57:55;;;;;;;7.17;2.57;;;1.70;99.90;;;;;;5046992;28;20044;-81
2024/01/19 10:00:21;;;;;;;8.77;2.17;;;1.80;99.90;;;;;;5053125;28;20052;-82
2024/01/19 10:02:52;;;;;;;5.50;2.33;;;1.80;99.90;;;;;;5029461;28;20123;-82
2024/01/19 10:05:19;;;;;;;6.90;2.53;;;1.80;99.90;;;;;;5047906;28;20033;-81
2024/01/19 10:07:47;;;;;;;3.80;1.87;;;1.90;99.90;;;;;;5014126;28;20041;-81
2024/01/19 10:10:15;;;;;;;6.63;2.40;;;1.90;99.90;;;;;;5047846;28;20431;-82
2024/01/19 10:12:41;;;;;;;6.63;2.43;;;2.00;99.90;;;;;;5051784;28;20033;-82
2024/01/19 10:15:15;;;;;;;6.33;2.43;;;2.00;99.90;;;;;;5028878;28;20054;-82
2024/01/19 10:17:42;;;;;;;7.00;2.50;;;2.10;99.90;;;;;;5028663;28;20037;-82
2024/01/19 10:20:13;;;;;;;6.47;2.60;;;2.10;99.90;;;;;;5065986;28;20086;-81
2024/01/19 10:22:42;;;;;;;7.28;2.97;;;2.20;99.90;;;;;;5060139;28;20040;-82
2024/01/19 10:25:13;;;;;;;8.77;2.73;;;2.30;99.90;;;;;;5036310;28;20041;-82
2024/01/19 10:27:51;;;;;;;9.32;2.75;;;2.30;99.90;;;;;;5052794;28;20465;-81
2024/01/19 10:30:27;;;;;;;13.97;3.37;;;2.40;99.90;;;;;;5050104;28;20032;-81
2024/01/19 10:33:05;;;;;;;7.67;2.60;;;2.40;99.90;;;;;;5017576;28;20064;-82
2024/01/19 10:35:32;;;;;;;8.00;2.53;;;2.50;99.90;;;;;;5034535;28;20044;-82
2024/01/19 10:38:05;;;;;;;8.10;2.53;;;2.50;99.90;;;;;;5031634;28;20119;-82
2024/01/19 10:40:33;;;;;;;10.93;2.50;;;2.60;99.90;;;;;;5043255;28;20048;-82
2024/01/19 10:42:59;;;;;;;9.97;2.63;;;2.70;99.90;;;;;;5043893;28;20397;-81
2024/01/19 10:45:31;;;;;;;7.00;2.40;;;2.70;99.90;;;;;;5024778;28;20045;-81
2024/01/19 10:47:59;;;;;;;8.75;2.97;;;2.80;99.90;;;;;;5034784;28;20128;-82
2024/01/19 10:50:28;;;;;;;7.43;2.77;;;2.80;99.90;;;;;;5049054;28;20107;-82
2024/01/19 10:52:55;;;;;;;7.63;2.90;;;2.80;99.90;;;;;;5050311;28;20041;-82
2024/01/19 10:55:23;;;;;;;9.20;3.00;;;2.90;99.90;;;;;;5000602;28;20041;-83
2024/01/19 10:57:53;;;;;;;6.60;2.90;;;3.00;99.90;;;;;;5035920;28;20476;-81
2024/01/19 11:00:26;;;;;;;9.13;3.13;;;3.00;99.90;;;;;;5030910;28;20041;-82
2024/01/19 11:02:57;;;;;;;9.37;3.30;;;3.00;99.90;;;;;;5034453;28;20166;-82
2024/01/19 11:05:26;;;;;;;10.47;3.50;;;2.90;99.90;;;;;;5037073;28;20088;-81
2024/01/19 11:08:00;;;;;;;8.47;3.30;;;2.90;99.90;;;;;;5016062;28;20396;-83
2024/01/19 11:10:28;;;;;;;9.17;3.77;;;3.00;99.90;;;;;;5039364;28;20040;-82
2024/01/19 11:12:59;;;;;;;9.70;3.63;;;3.00;99.90;;;;;;5038102;28;20512;-82
2024/01/19 11:15:34;;;;;;;14.73;3.50;;;3.10;99.90;;;;;;5063969;28;20104;-82
2024/01/19 11:18:03;;;;;;;12.13;3.87;;;3.20;99.90;;;;;;5057630;28;20112;-81
2024/01/19 11:20:31;;;;;;;10.93;3.37;;;3.20;99.90;;;;;;5061523;28;20044;-83
2024/01/19 11:23:00;;;;;;;9.40;4.13;;;3.30;99.90;;;;;;5064616;28;20041;-81
2024/01/19 11:25:53;;;;;;;10.63;3.70;;;3.30;99.90;;;;;;5021468;28;20100;-81
2024/01/19 11:28:56;;;;;;;7.07;3.17;;;3.30;99.90;;;;;;5050923;28;20086;-81
2024/01/19 11:31:25;;;;;;;;;;;3.40;99.90;;;;;;5033100;28;20048;-81
2024/01/19 11:33:53;;;;;;;10.47;3.83;;;3.40;99.90;;;;;;5037572;28;20357;-80
2024/01/19 11:36:38;;;;;;;13.30;3.50;;;3.40;99.90;;;;;;5057674;28;20037;-81
2024/01/19 11:39:13;;;;;;;9.10;3.43;;;3.60;99.90;;;;;;5046154;28;20897;-81
2024/01/19 11:41:40;;;;;;;8.37;3.70;;;3.50;99.90;;;;;;5034083;28;20465;-81
2024/01/19 11:44:15;;;;;;;6.23;3.23;;;3.60;99.90;;;;;;5055269;28;20045;-80
2024/01/19 11:46:44;;;;;;;10.40;3.07;;;3.60;99.90;;;;;;5039542;28;20047;-80
2024/01/19 11:49:30;;;;;;;9.70;3.57;;;3.60;99.90;;;;;;5038024;28;20052;-80
2024/01/19 11:52:00;;;;;;;8.90;3.30;;;3.60;99.90;;;;;;5046184;28;20088;-80
2024/01/19 11:54:32;;;;;;;11.73;3.57;;;3.60;99.90;;;;;;5037481;28;20032;-80
2024/01/19 11:57:30;;;;;;;11.93;3.78;;;3.70;99.90;;;;;;5048630;28;20037;-81
2024/01/19 11:59:56;;;;;;;8.00;3.27;;;3.70;99.90;;;;;;4999982;28;20052;-82
2024/01/19 12:02:31;;;;;;;8.83;3.07;;;3.70;99.90;;;;;;5016708;28;20074;-81
2024/01/19 12:05:06;;;;;;;9.30;3.50;;;3.80;99.90;;;;;;5052752;28;20078;-80
2024/01/19 12:07:32;;;;;;;11.57;3.60;;;3.80;99.90;;;;;;5064775;28;20048;-81
2024/01/19 12:10:11;;;;;;;6.47;3.03;;;3.90;99.90;;;;;;5024165;28;20604;-81
2024/01/19 12:12:38;;;;;;;15.87;4.53;;;3.90;99.90;;;;;;5044760;28;20131;-81
2024/01/19 12:15:06;;;;;;;8.80;3.20;;;4.00;99.90;;;;;;5032750;28;20036;-81
2024/01/19 12:17:32;;;;;;;8.93;3.07;;;4.00;99.90;;;;;;5036824;28;20040;-82
2024/01/19 12:19:58;;;;;;;8.33;2.83;;;4.00;99.90;;;;;;5053274;28;20094;-82
2024/01/19 12:22:24;;;;;;;11.67;3.20;;;4.00;99.90;;;;;;5034235;28;20044;-81
2024/01/19 12:24:50;;;;;;;9.97;3.10;;;4.00;99.90;;;;;;5022639;28;20461;-81
2024/01/19 12:27:20;;;;;;;9.03;2.83;;;4.10;99.90;;;;;;5031933;28;20068;-82
2024/01/19 12:29:45;;;;;;;10.17;2.93;;;4.10;99.90;;;;;;5032110;28;20037;-82
2024/01/19 12:32:13;;;;;;;8.53;3.33;;;4.10;99.90;;;;;;5028007;28;20037;-81
2024/01/19 12:34:39;;;;;;;11.00;2.97;;;4.20;99.90;;;;;;5056158;28;20097;-80
2024/01/19 12:37:05;;;;;;;9.90;3.20;;;4.20;99.90;;;;;;5036082;28;20040;-81
2024/01/19 12:39:31;;;;;;;8.93;3.23;;;4.20;99.90;;;;;;5028196;28;20045;-83
2024/01/19 12:42:02;;;;;;;9.67;3.20;;;4.20;99.90;;;;;;5034326;28;20388;-82
2024/01/19 12:44:28;;;;;;;10.30;3.60;;;4.20;99.90;;;;;;5045762;28;20049;-82
2024/01/19 12:46:58;;;;;;;9.20;2.90;;;4.20;99.90;;;;;;5023417;28;20045;-82
2024/01/19 12:49:24;;;;;;;8.97;3.20;;;4.30;99.90;;;;;;5022995;28;20047;-82
2024/01/19 12:51:49;;;;;;;8.80;2.87;;;4.30;99.90;;;;;;5002434;28;20473;-82
2024/01/19 12:54:17;;;;;;;9.67;3.10;;;4.30;99.90;;;;;;5037469;28;20404;-82